sensor_id;sensor_type;location;lat;lon;timestamp;pressure;altitude;pressure_sealevel;temperature;humidity
11605;BME280;5858;43.076;25.626;2023-01-25T00:02:17;100856.88;;;0.84;80.89
11605;BME280;5858;43.076;25.626;2023-01-25T00:04:47;100853.84;;;0.92;81.08
11605;BME280;5858;43.076;25.626;2023-01-25T00:07:14;100842.94;;;0.82;81.46
11605;BME280;5858;43.076;25.626;2023-01-25T00:09:41;100922.06;;;1.30;81.51
11605;BME280;5858;43.076;25.626;2023-01-25T00:12:10;100769.50;;;0.45;81.58
11605;BME280;5858;43.076;25.626;2023-01-25T00:14:37;100927.25;;;1.31;81.59
11605;BME280;5858;43.076;25.626;2023-01-25T00:17:04;100917.47;;;1.33;81.14
11605;BME280;5858;43.076;25.626;2023-01-25T00:19:31;100808.34;;;0.73;80.89
11605;BME280;5858;43.076;25.626;2023-01-25T00:21:58;100871.63;;;1.04;81.19
11605;BME280;5858;43.076;25.626;2023-01-25T00:24:26;100818.47;;;0.65;81.30
11605;BME280;5858;43.076;25.626;2023-01-25T00:26:53;100894.69;;;1.16;81.50
11605;BME280;5858;43.076;25.626;2023-01-25T00:29:21;100833.84;;;0.88;80.78
11605;BME280;5858;43.076;25.626;2023-01-25T00:31:53;100920.34;;;1.29;81.59
11605;BME280;5858;43.076;25.626;2023-01-25T00:34:44;100786.81;;;0.33;82.05
11605;BME280;5858;43.076;25.626;2023-01-25T00:37:22;100921.78;;;1.34;81.53
11605;BME280;5858;43.076;25.626;2023-01-25T00:39:50;100730.91;;;0.12;81.61
11605;BME280;5858;43.076;25.626;2023-01-25T00:42:18;100917.81;;;1.43;80.72
11605;BME280;5858;43.076;25.626;2023-01-25T00:44:47;100716.72;;;0.15;80.84
11605;BME280;5858;43.076;25.626;2023-01-25T00:47:15;100727.94;;;0.34;79.99
11605;BME280;5858;43.076;25.626;2023-01-25T00:49:43;100878.09;;;1.14;80.24
11605;BME280;5858;43.076;25.626;2023-01-25T00:52:11;100887.28;;;1.23;79.10
11605;BME280;5858;43.076;25.626;2023-01-25T00:54:38;100901.91;;;1.13;79.91
11605;BME280;5858;43.076;25.626;2023-01-25T00:57:06;100913.88;;;1.34;78.91
11605;BME280;5858;43.076;25.626;2023-01-25T00:59:33;100928.19;;;1.30;79.85
11605;BME280;5858;43.076;25.626;2023-01-25T01:02:02;100873.25;;;1.07;79.67
11605;BME280;5858;43.076;25.626;2023-01-25T01:04:30;100831.06;;;0.91;80.15
11605;BME280;5858;43.076;25.626;2023-01-25T01:06:57;100737.03;;;0.44;79.80
11605;BME280;5858;43.076;25.626;2023-01-25T01:09:25;100835.25;;;0.95;79.74
11605;BME280;5858;43.076;25.626;2023-01-25T01:11:52;100696.44;;;0.17;80.69
11605;BME280;5858;43.076;25.626;2023-01-25T01:14:21;100865.75;;;1.15;80.55
11605;BME280;5858;43.076;25.626;2023-01-25T01:16:48;100836.84;;;0.98;79.49
11605;BME280;5858;43.076;25.626;2023-01-25T01:19:17;100895.84;;;1.26;79.63
11605;BME280;5858;43.076;25.626;2023-01-25T01:21:44;100914.22;;;1.28;77.93
11605;BME280;5858;43.076;25.626;2023-01-25T01:24:11;100732.78;;;0.26;79.19
11605;BME280;5858;43.076;25.626;2023-01-25T01:26:38;100778.97;;;0.65;79.38
11605;BME280;5858;43.076;25.626;2023-01-25T01:29:05;100897.56;;;1.27;79.43
11605;BME280;5858;43.076;25.626;2023-01-25T01:33:59;100770.81;;;0.53;79.21
11605;BME280;5858;43.076;25.626;2023-01-25T01:36:31;100748.94;;;0.36;78.93
11605;BME280;5858;43.076;25.626;2023-01-25T01:38:59;100864.50;;;1.06;79.64
11605;BME280;5858;43.076;25.626;2023-01-25T01:41:26;100805.28;;;0.65;80.16
11605;BME280;5858;43.076;25.626;2023-01-25T01:43:53;100867.97;;;1.22;80.06
11605;BME280;5858;43.076;25.626;2023-01-25T01:46:24;100888.28;;;1.36;80.00
11605;BME280;5858;43.076;25.626;2023-01-25T01:48:55;100770.22;;;0.64;80.54
11605;BME280;5858;43.076;25.626;2023-01-25T01:51:35;100755.03;;;0.36;81.15
11605;BME280;5858;43.076;25.626;2023-01-25T01:54:08;100792.28;;;0.77;81.46
11605;BME280;5858;43.076;25.626;2023-01-25T01:56:41;100830.19;;;0.90;81.90
11605;BME280;5858;43.076;25.626;2023-01-25T01:59:11;100803.28;;;1.01;81.46
11605;BME280;5858;43.076;25.626;2023-01-25T02:01:39;100876.47;;;1.43;81.41
11605;BME280;5858;43.076;25.626;2023-01-25T02:04:07;100836.50;;;1.19;81.22
11605;BME280;5858;43.076;25.626;2023-01-25T02:06:43;100878.16;;;1.29;82.29
11605;BME280;5858;43.076;25.626;2023-01-25T02:09:12;100869.66;;;1.39;81.35
11605;BME280;5858;43.076;25.626;2023-01-25T02:11:41;100875.69;;;1.41;81.90
11605;BME280;5858;43.076;25.626;2023-01-25T02:14:08;100826.47;;;1.26;80.89
11605;BME280;5858;43.076;25.626;2023-01-25T02:16:35;100816.19;;;1.06;80.67
11605;BME280;5858;43.076;25.626;2023-01-25T02:19:02;100806.06;;;1.14;81.37
11605;BME280;5858;43.076;25.626;2023-01-25T02:21:38;100763.56;;;1.04;80.69
11605;BME280;5858;43.076;25.626;2023-01-25T02:24:10;100830.53;;;1.47;80.51
11605;BME280;5858;43.076;25.626;2023-01-25T02:26:42;100866.78;;;1.74;80.60
11605;BME280;5858;43.076;25.626;2023-01-25T02:29:09;100830.47;;;1.63;80.09
11605;BME280;5858;43.076;25.626;2023-01-25T02:31:37;100767.78;;;1.22;80.07
11605;BME280;5858;43.076;25.626;2023-01-25T02:34:04;100837.28;;;1.67;79.85
11605;BME280;5858;43.076;25.626;2023-01-25T02:36:32;100813.13;;;1.59;79.98
11605;BME280;5858;43.076;25.626;2023-01-25T02:39:01;100848.88;;;1.95;79.35
11605;BME280;5858;43.076;25.626;2023-01-25T02:41:32;100775.25;;;1.60;77.89
11605;BME280;5858;43.076;25.626;2023-01-25T02:44:03;100844.16;;;2.00;78.23
11605;BME280;5858;43.076;25.626;2023-01-25T02:46:32;100843.97;;;2.03;78.95
11605;BME280;5858;43.076;25.626;2023-01-25T02:49:01;100773.09;;;1.52;78.95
11605;BME280;5858;43.076;25.626;2023-01-25T02:51:30;100815.75;;;1.89;77.52
11605;BME280;5858;43.076;25.626;2023-01-25T02:53:59;100764.41;;;1.50;78.20
11605;BME280;5858;43.076;25.626;2023-01-25T02:56:26;100850.03;;;1.75;79.03
11605;BME280;5858;43.076;25.626;2023-01-25T02:58:53;100852.66;;;1.75;78.40
11605;BME280;5858;43.076;25.626;2023-01-25T03:01:22;100808.00;;;1.26;79.88
11605;BME280;5858;43.076;25.626;2023-01-25T03:03:50;100812.09;;;1.16;79.91
11605;BME280;5858;43.076;25.626;2023-01-25T03:06:17;100870.75;;;1.51;79.88
11605;BME280;5858;43.076;25.626;2023-01-25T03:08:45;100840.72;;;1.38;79.97
11605;BME280;5858;43.076;25.626;2023-01-25T03:11:12;100829.84;;;1.44;80.21
11605;BME280;5858;43.076;25.626;2023-01-25T03:13:41;100860.34;;;1.64;80.26
11605;BME280;5858;43.076;25.626;2023-01-25T03:16:10;100709.88;;;0.59;79.83
11605;BME280;5858;43.076;25.626;2023-01-25T03:18:39;100862.22;;;1.62;80.47
11605;BME280;5858;43.076;25.626;2023-01-25T03:21:08;100849.94;;;1.31;80.37
11605;BME280;5858;43.076;25.626;2023-01-25T03:23:36;100873.38;;;1.67;80.40
11605;BME280;5858;43.076;25.626;2023-01-25T03:26:05;100790.16;;;1.15;80.43
11605;BME280;5858;43.076;25.626;2023-01-25T03:28:32;100858.16;;;1.56;80.64
11605;BME280;5858;43.076;25.626;2023-01-25T03:31:00;100816.19;;;1.06;81.19
11605;BME280;5858;43.076;25.626;2023-01-25T03:33:29;100871.44;;;1.39;81.21
11605;BME280;5858;43.076;25.626;2023-01-25T03:35:58;100871.88;;;1.31;81.76
11605;BME280;5858;43.076;25.626;2023-01-25T03:38:26;100758.81;;;0.63;82.75
11605;BME280;5858;43.076;25.626;2023-01-25T03:40:53;100744.19;;;0.74;82.52
11605;BME280;5858;43.076;25.626;2023-01-25T03:43:21;100741.16;;;0.50;83.03
11605;BME280;5858;43.076;25.626;2023-01-25T03:45:52;100877.41;;;1.42;83.23
11605;BME280;5858;43.076;25.626;2023-01-25T03:48:19;100768.94;;;0.71;82.54
11605;BME280;5858;43.076;25.626;2023-01-25T03:50:49;100825.97;;;1.19;82.87
11605;BME280;5858;43.076;25.626;2023-01-25T03:53:21;100853.84;;;1.23;83.74
11605;BME280;5858;43.076;25.626;2023-01-25T03:55:55;100790.00;;;0.87;84.02
11605;BME280;5858;43.076;25.626;2023-01-25T03:58:23;100751.53;;;0.53;82.87
11605;BME280;5858;43.076;25.626;2023-01-25T04:00:53;100872.47;;;1.20;83.77
11605;BME280;5858;43.076;25.626;2023-01-25T04:03:20;100823.94;;;1.09;82.99
11605;BME280;5858;43.076;25.626;2023-01-25T04:05:47;100795.69;;;0.79;82.92
11605;BME280;5858;43.076;25.626;2023-01-25T04:08:15;100896.03;;;1.39;83.42
11605;BME280;5858;43.076;25.626;2023-01-25T04:10:44;100854.09;;;1.19;83.25
11605;BME280;5858;43.076;25.626;2023-01-25T04:13:16;100734.44;;;0.60;83.41
11605;BME280;5858;43.076;25.626;2023-01-25T04:15:44;100872.28;;;1.39;83.25
11605;BME280;5858;43.076;25.626;2023-01-25T04:18:14;100873.41;;;1.35;83.57
11605;BME280;5858;43.076;25.626;2023-01-25T04:20:41;100830.47;;;1.02;83.60
11605;BME280;5858;43.076;25.626;2023-01-25T04:23:09;100801.97;;;0.77;83.78
11605;BME280;5858;43.076;25.626;2023-01-25T04:25:36;100864.91;;;1.14;84.54
11605;BME280;5858;43.076;25.626;2023-01-25T04:28:05;100794.84;;;0.79;84.18
11605;BME280;5858;43.076;25.626;2023-01-25T04:30:32;100828.75;;;0.85;84.42
11605;BME280;5858;43.076;25.626;2023-01-25T04:33:03;100834.53;;;0.76;84.74
11605;BME280;5858;43.076;25.626;2023-01-25T04:35:31;100873.50;;;1.18;84.57
11605;BME280;5858;43.076;25.626;2023-01-25T04:37:59;100893.31;;;1.09;84.55
11605;BME280;5858;43.076;25.626;2023-01-25T04:40:26;100842.53;;;0.90;83.70
11605;BME280;5858;43.076;25.626;2023-01-25T04:42:53;100802.31;;;0.71;83.91
11605;BME280;5858;43.076;25.626;2023-01-25T04:45:26;100864.56;;;1.05;84.58
11605;BME280;5858;43.076;25.626;2023-01-25T04:47:57;100743.50;;;0.23;84.51
11605;BME280;5858;43.076;25.626;2023-01-25T04:50:25;100746.28;;;0.36;84.58
11605;BME280;5858;43.076;25.626;2023-01-25T04:52:52;100827.81;;;0.86;83.60
11605;BME280;5858;43.076;25.626;2023-01-25T04:55:20;100874.59;;;0.98;85.20
11605;BME280;5858;43.076;25.626;2023-01-25T04:57:48;100753.19;;;0.38;84.94
11605;BME280;5858;43.076;25.626;2023-01-25T05:00:17;100814.22;;;0.78;84.30
11605;BME280;5858;43.076;25.626;2023-01-25T05:02:46;100855.53;;;0.77;85.06
11605;BME280;5858;43.076;25.626;2023-01-25T05:05:14;100806.56;;;0.57;85.29
11605;BME280;5858;43.076;25.626;2023-01-25T05:07:41;100871.53;;;1.06;84.75
11605;BME280;5858;43.076;25.626;2023-01-25T05:10:09;100794.09;;;0.61;85.03
11605;BME280;5858;43.076;25.626;2023-01-25T05:12:36;100726.06;;;0.20;84.58
11605;BME280;5858;43.076;25.626;2023-01-25T05:15:05;100887.63;;;1.17;84.68
11605;BME280;5858;43.076;25.626;2023-01-25T05:17:32;100737.13;;;0.27;85.53
11605;BME280;5858;43.076;25.626;2023-01-25T05:20:00;100871.78;;;1.17;85.67
11605;BME280;5858;43.076;25.626;2023-01-25T05:22:28;100878.16;;;1.29;85.04
11605;BME280;5858;43.076;25.626;2023-01-25T05:24:55;100772.16;;;0.76;84.43
11605;BME280;5858;43.076;25.626;2023-01-25T05:27:23;100689.06;;;0.23;84.59
11605;BME280;5858;43.076;25.626;2023-01-25T05:29:50;100726.75;;;0.24;84.12
11605;BME280;5858;43.076;25.626;2023-01-25T05:32:18;100762.22;;;0.66;84.37
11605;BME280;5858;43.076;25.626;2023-01-25T05:34:46;100687.09;;;0.27;83.70
11605;BME280;5858;43.076;25.626;2023-01-25T05:37:17;100765.53;;;0.69;84.33
11605;BME280;5858;43.076;25.626;2023-01-25T05:39:44;100798.41;;;0.78;84.33
11605;BME280;5858;43.076;25.626;2023-01-25T05:42:13;100827.25;;;0.97;84.12
11605;BME280;5858;43.076;25.626;2023-01-25T05:44:48;100738.91;;;0.42;84.53
11605;BME280;5858;43.076;25.626;2023-01-25T05:47:17;100705.09;;;0.03;85.05
11605;BME280;5858;43.076;25.626;2023-01-25T05:49:45;100884.97;;;1.17;85.46
11605;BME280;5858;43.076;25.626;2023-01-25T05:52:27;100720.13;;;0.17;87.02
11605;BME280;5858;43.076;25.626;2023-01-25T05:54:59;100723.03;;;-0.05;88.97
11605;BME280;5858;43.076;25.626;2023-01-25T05:57:35;100894.06;;;0.96;89.42
11605;BME280;5858;43.076;25.626;2023-01-25T06:00:09;100892.81;;;1.18;89.38
11605;BME280;5858;43.076;25.626;2023-01-25T06:02:45;100912.97;;;1.19;89.59
11605;BME280;5858;43.076;25.626;2023-01-25T06:05:13;100823.75;;;0.65;90.57
11605;BME280;5858;43.076;25.626;2023-01-25T06:08:04;100799.47;;;0.42;91.40
11605;BME280;5858;43.076;25.626;2023-01-25T06:11:14;100684.56;;;-0.23;91.07
11605;BME280;5858;43.076;25.626;2023-01-25T06:14:04;100774.41;;;0.35;90.86
11605;BME280;5858;43.076;25.626;2023-01-25T06:16:34;100689.22;;;-0.28;91.89
11605;BME280;5858;43.076;25.626;2023-01-25T06:19:03;100846.00;;;0.59;91.66
11605;BME280;5858;43.076;25.626;2023-01-25T06:21:31;100906.06;;;1.01;91.52
11605;BME280;5858;43.076;25.626;2023-01-25T06:24:01;100881.88;;;0.93;91.33
11605;BME280;5858;43.076;25.626;2023-01-25T06:26:28;100754.84;;;0.08;90.56
11605;BME280;5858;43.076;25.626;2023-01-25T06:28:55;100886.09;;;0.97;90.01
11605;BME280;5858;43.076;25.626;2023-01-25T06:31:22;100827.75;;;0.39;90.03
11605;BME280;5858;43.076;25.626;2023-01-25T06:33:50;100862.31;;;0.81;89.62
11605;BME280;5858;43.076;25.626;2023-01-25T06:36:20;100897.56;;;0.96;89.84
11605;BME280;5858;43.076;25.626;2023-01-25T06:38:48;100865.72;;;0.83;89.07
11605;BME280;5858;43.076;25.626;2023-01-25T06:41:19;100826.44;;;0.63;89.50
11605;BME280;5858;43.076;25.626;2023-01-25T06:47:01;100810.09;;;0.41;89.51
11605;BME280;5858;43.076;25.626;2023-01-25T06:49:38;100713.00;;;-0.14;89.24
11605;BME280;5858;43.076;25.626;2023-01-25T06:52:05;100898.06;;;1.18;89.18
11605;BME280;5858;43.076;25.626;2023-01-25T06:54:38;100783.59;;;0.44;88.91
11605;BME280;5858;43.076;25.626;2023-01-25T06:57:07;100828.84;;;0.68;89.40
11605;BME280;5858;43.076;25.626;2023-01-25T06:59:34;100906.91;;;1.17;89.07
11605;BME280;5858;43.076;25.626;2023-01-25T07:02:08;100842.69;;;0.71;88.82
11605;BME280;5858;43.076;25.626;2023-01-25T07:04:36;100812.88;;;0.38;88.79
11605;BME280;5858;43.076;25.626;2023-01-25T07:07:06;100794.28;;;0.41;88.41
11605;BME280;5858;43.076;25.626;2023-01-25T07:09:37;100755.44;;;0.13;88.97
11605;BME280;5858;43.076;25.626;2023-01-25T07:12:10;100874.53;;;1.00;89.26
11605;BME280;5858;43.076;25.626;2023-01-25T07:14:37;100916.03;;;1.43;88.27
11605;BME280;5858;43.076;25.626;2023-01-25T07:17:10;100924.72;;;1.45;88.08
11605;BME280;5858;43.076;25.626;2023-01-25T07:19:38;100844.50;;;1.18;87.39
11605;BME280;5858;43.076;25.626;2023-01-25T07:22:16;100899.00;;;1.49;87.36
11605;BME280;5858;43.076;25.626;2023-01-25T07:24:43;100901.47;;;1.36;87.94
11605;BME280;5858;43.076;25.626;2023-01-25T07:27:27;100751.47;;;0.37;87.74
11605;BME280;5858;43.076;25.626;2023-01-25T07:29:58;100824.25;;;0.71;88.21
11605;BME280;5858;43.076;25.626;2023-01-25T07:32:28;100758.19;;;0.43;88.85
11605;BME280;5858;43.076;25.626;2023-01-25T07:35:03;100868.13;;;1.19;87.97
11605;BME280;5858;43.076;25.626;2023-01-25T07:37:36;100763.63;;;0.40;88.48
11605;BME280;5858;43.076;25.626;2023-01-25T07:40:08;100740.59;;;0.27;88.66
11605;BME280;5858;43.076;25.626;2023-01-25T07:42:52;100838.69;;;0.80;88.25
11605;BME280;5858;43.076;25.626;2023-01-25T07:45:21;100929.06;;;1.46;87.99
11605;BME280;5858;43.076;25.626;2023-01-25T07:47:55;100912.97;;;1.51;88.23
11605;BME280;5858;43.076;25.626;2023-01-25T07:50:38;100879.13;;;1.12;87.78
11605;BME280;5858;43.076;25.626;2023-01-25T07:53:15;100903.84;;;1.25;87.79
11605;BME280;5858;43.076;25.626;2023-01-25T07:55:42;100769.88;;;0.54;87.23
11605;BME280;5858;43.076;25.626;2023-01-25T07:58:28;100723.78;;;0.46;87.53
11605;BME280;5858;43.076;25.626;2023-01-25T08:01:07;100864.63;;;1.35;87.58
11605;BME280;5858;43.076;25.626;2023-01-25T08:03:55;100889.47;;;1.15;88.00
11605;BME280;5858;43.076;25.626;2023-01-25T08:06:25;100775.66;;;0.61;88.16
11605;BME280;5858;43.076;25.626;2023-01-25T08:09:09;100923.09;;;1.58;87.95
11605;BME280;5858;43.076;25.626;2023-01-25T08:11:47;100737.22;;;0.73;86.75
11605;BME280;5858;43.076;25.626;2023-01-25T08:14:20;100901.38;;;1.69;86.77
11605;BME280;5858;43.076;25.626;2023-01-25T08:16:49;100913.66;;;1.84;86.88
11605;BME280;5858;43.076;25.626;2023-01-25T08:19:20;100935.44;;;1.88;86.09
11605;BME280;5858;43.076;25.626;2023-01-25T08:21:49;100800.66;;;1.31;85.38
11605;BME280;5858;43.076;25.626;2023-01-25T08:24:17;100904.03;;;1.99;85.17
11605;BME280;5858;43.076;25.626;2023-01-25T08:26:45;100767.78;;;1.22;84.96
11605;BME280;5858;43.076;25.626;2023-01-25T08:29:12;100838.66;;;1.58;86.01
11605;BME280;5858;43.076;25.626;2023-01-25T08:31:41;100808.56;;;1.47;86.22
11605;BME280;5858;43.076;25.626;2023-01-25T08:34:12;100811.31;;;1.45;85.15
11605;BME280;5858;43.076;25.626;2023-01-25T08:36:40;100897.81;;;2.00;85.58
11605;BME280;5858;43.076;25.626;2023-01-25T08:39:11;100898.56;;;2.02;85.44
11605;BME280;5858;43.076;25.626;2023-01-25T08:41:39;100907.69;;;1.97;85.09
11605;BME280;5858;43.076;25.626;2023-01-25T08:44:15;100925.69;;;1.90;85.38
11605;BME280;5858;43.076;25.626;2023-01-25T08:46:53;100906.59;;;1.85;85.26
11605;BME280;5858;43.076;25.626;2023-01-25T08:49:23;100828.91;;;1.45;86.13
11605;BME280;5858;43.076;25.626;2023-01-25T08:51:52;100775.50;;;1.25;84.45
11605;BME280;5858;43.076;25.626;2023-01-25T08:54:21;100891.09;;;1.95;84.00
11605;BME280;5858;43.076;25.626;2023-01-25T08:56:49;100821.50;;;1.51;83.70
11605;BME280;5858;43.076;25.626;2023-01-25T08:59:17;100856.00;;;1.63;83.78
11605;BME280;5858;43.076;25.626;2023-01-25T09:01:44;100774.97;;;1.35;80.24
11605;BME280;5858;43.076;25.626;2023-01-25T09:04:16;100835.03;;;1.75;80.61
11605;BME280;5858;43.076;25.626;2023-01-25T09:07:13;100919.41;;;2.07;81.77
11605;BME280;5858;43.076;25.626;2023-01-25T09:09:46;100888.03;;;2.16;80.51
11605;BME280;5858;43.076;25.626;2023-01-25T09:12:13;100824.22;;;1.80;79.70
11605;BME280;5858;43.076;25.626;2023-01-25T09:14:41;100844.47;;;2.09;80.28
11605;BME280;5858;43.076;25.626;2023-01-25T09:17:10;100887.53;;;2.40;79.84
11605;BME280;5858;43.076;25.626;2023-01-25T09:19:46;100883.28;;;2.51;79.88
11605;BME280;5858;43.076;25.626;2023-01-25T09:22:17;100848.84;;;2.39;79.34
11605;BME280;5858;43.076;25.626;2023-01-25T09:24:48;100704.22;;;1.57;79.82
11605;BME280;5858;43.076;25.626;2023-01-25T09:27:18;100866.56;;;2.79;79.86
11605;BME280;5858;43.076;25.626;2023-01-25T09:29:46;100838.19;;;2.55;78.15
11605;BME280;5858;43.076;25.626;2023-01-25T09:32:14;100794.88;;;2.43;79.26
11605;BME280;5858;43.076;25.626;2023-01-25T09:34:43;100737.63;;;2.29;78.97
11605;BME280;5858;43.076;25.626;2023-01-25T09:37:10;100850.88;;;3.05;77.82
11605;BME280;5858;43.076;25.626;2023-01-25T09:39:38;100697.91;;;2.31;77.92
11605;BME280;5858;43.076;25.626;2023-01-25T09:42:30;100809.91;;;2.98;76.87
11605;BME280;5858;43.076;25.626;2023-01-25T09:45:14;100749.31;;;2.53;77.14
11605;BME280;5858;43.076;25.626;2023-01-25T09:47:59;100734.25;;;2.68;75.55
11605;BME280;5858;43.076;25.626;2023-01-25T09:50:40;100848.09;;;3.35;75.71
11605;BME280;5858;43.076;25.626;2023-01-25T09:53:19;100859.31;;;3.38;75.85
11605;BME280;5858;43.076;25.626;2023-01-25T09:55:50;100833.69;;;3.39;75.83
11605;BME280;5858;43.076;25.626;2023-01-25T10:01:55;100828.22;;;3.42;74.60
11605;BME280;5858;43.076;25.626;2023-01-25T10:04:36;100740.34;;;2.83;74.69
11605;BME280;5858;43.076;25.626;2023-01-25T10:07:13;100750.16;;;2.95;73.54
11605;BME280;5858;43.076;25.626;2023-01-25T10:09:48;100778.13;;;3.12;73.96
11605;BME280;5858;43.076;25.626;2023-01-25T10:12:21;100687.25;;;2.73;73.51
11605;BME280;5858;43.076;25.626;2023-01-25T10:14:54;100731.56;;;2.82;72.39
11605;BME280;5858;43.076;25.626;2023-01-25T10:17:28;100628.38;;;2.44;72.64
11605;BME280;5858;43.076;25.626;2023-01-25T10:20:11;100793.53;;;3.59;72.97
11605;BME280;5858;43.076;25.626;2023-01-25T10:22:47;100748.13;;;3.26;71.11
11605;BME280;5858;43.076;25.626;2023-01-25T10:25:35;100694.31;;;2.73;72.09
11605;BME280;5858;43.076;25.626;2023-01-25T10:28:25;100713.78;;;2.99;73.50
11605;BME280;5858;43.076;25.626;2023-01-25T10:30:59;100612.88;;;2.52;72.05
11605;BME280;5858;43.076;25.626;2023-01-25T10:33:30;100736.59;;;3.27;70.98
11605;BME280;5858;43.076;25.626;2023-01-25T10:36:01;100775.53;;;3.64;71.79
11605;BME280;5858;43.076;25.626;2023-01-25T10:38:35;100665.88;;;3.03;70.66
11605;BME280;5858;43.076;25.626;2023-01-25T10:41:08;100761.25;;;3.67;69.90
11605;BME280;5858;43.076;25.626;2023-01-25T10:43:43;100635.84;;;3.04;70.06
11605;BME280;5858;43.076;25.626;2023-01-25T10:46:20;100759.97;;;3.60;67.94
11605;BME280;5858;43.076;25.626;2023-01-25T10:49:23;100586.97;;;2.45;69.37
11605;BME280;5858;43.076;25.626;2023-01-25T10:52:17;100752.22;;;3.44;69.58
11605;BME280;5858;43.076;25.626;2023-01-25T11:02:24;100647.28;;;2.78;75.76
11605;BME280;5858;43.076;25.626;2023-01-25T11:05:24;100625.56;;;2.60;75.89
11605;BME280;5858;43.076;25.626;2023-01-25T11:07:54;100697.53;;;3.17;75.67
11605;BME280;5858;43.076;25.626;2023-01-25T11:11:51;100696.97;;;3.00;76.54
11605;BME280;5858;43.076;25.626;2023-01-25T11:14:18;100520.19;;;1.75;77.26
11605;BME280;5858;43.076;25.626;2023-01-25T11:17:01;100523.09;;;1.84;77.88
11605;BME280;5858;43.076;25.626;2023-01-25T11:19:34;100672.56;;;3.09;76.84
11605;BME280;5858;43.076;25.626;2023-01-25T11:22:53;100634.81;;;2.80;74.38
11605;BME280;5858;43.076;25.626;2023-01-25T11:25:30;100622.56;;;2.79;72.98
11605;BME280;5858;43.076;25.626;2023-01-25T11:28:24;100670.78;;;3.09;71.73
11605;BME280;5858;43.076;25.626;2023-01-25T11:30:54;100699.81;;;2.97;72.31
11605;BME280;5858;43.076;25.626;2023-01-25T11:33:34;100545.94;;;2.12;73.41
11605;BME280;5858;43.076;25.626;2023-01-25T11:36:28;100556.53;;;2.25;74.32
11605;BME280;5858;43.076;25.626;2023-01-25T11:39:20;100594.69;;;2.48;73.64
11605;BME280;5858;43.076;25.626;2023-01-25T11:42:05;100659.63;;;2.92;73.85
11605;BME280;5858;43.076;25.626;2023-01-25T11:45:01;100526.31;;;1.89;74.90
11605;BME280;5858;43.076;25.626;2023-01-25T11:47:42;100667.03;;;2.72;75.27
11605;BME280;5858;43.076;25.626;2023-01-25T11:56:24;100539.91;;;1.69;76.64
11605;BME280;5858;43.076;25.626;2023-01-25T11:59:10;100653.94;;;2.44;76.53
11605;BME280;5858;43.076;25.626;2023-01-25T12:01:59;100463.25;;;1.58;76.16
11605;BME280;5858;43.076;25.626;2023-01-25T12:04:47;100656.72;;;2.82;75.12
11605;BME280;5858;43.076;25.626;2023-01-25T12:07:19;100580.75;;;2.05;75.52
11605;BME280;5858;43.076;25.626;2023-01-25T12:10:02;100482.50;;;1.46;75.69
11605;BME280;5858;43.076;25.626;2023-01-25T12:12:53;100650.53;;;2.69;75.33
11605;BME280;5858;43.076;25.626;2023-01-25T12:16:02;100570.91;;;1.66;75.88
11605;BME280;5858;43.076;25.626;2023-01-25T12:19:14;100487.56;;;1.35;76.78
11605;BME280;5858;43.076;25.626;2023-01-25T12:22:28;100489.34;;;1.34;75.95
11605;BME280;5858;43.076;25.626;2023-01-25T12:25:41;100648.88;;;2.27;76.36
11605;BME280;5858;43.076;25.626;2023-01-25T12:28:30;100533.06;;;1.52;75.88
11605;BME280;5858;43.076;25.626;2023-01-25T12:31:08;100442.97;;;1.03;76.26
11605;BME280;5858;43.076;25.626;2023-01-25T12:33:46;100480.88;;;1.29;77.30
11605;BME280;5858;43.076;25.626;2023-01-25T12:36:20;100639.16;;;2.27;77.29
11605;BME280;5858;43.076;25.626;2023-01-25T12:38:56;100430.72;;;1.16;76.10
11605;BME280;5858;43.076;25.626;2023-01-25T12:41:30;100609.66;;;2.20;77.38
11605;BME280;5858;43.076;25.626;2023-01-25T12:44:10;100508.47;;;1.52;78.84
11605;BME280;5858;43.076;25.626;2023-01-25T12:46:44;100650.91;;;2.36;79.11
11605;BME280;5858;43.076;25.626;2023-01-25T12:49:26;100650.69;;;2.12;79.57
11605;BME280;5858;43.076;25.626;2023-01-25T12:52:00;100563.34;;;1.74;79.47
11605;BME280;5858;43.076;25.626;2023-01-25T12:54:49;100629.66;;;2.10;79.41
11605;BME280;5858;43.076;25.626;2023-01-25T12:57:54;100515.72;;;1.20;79.35
11605;BME280;5858;43.076;25.626;2023-01-25T13:00:41;100565.66;;;1.51;79.59
11605;BME280;5858;43.076;25.626;2023-01-25T13:03:28;100590.69;;;1.73;80.23
11605;BME280;5858;43.076;25.626;2023-01-25T13:06:05;100431.88;;;0.84;79.74
11605;BME280;5858;43.076;25.626;2023-01-25T13:08:48;100530.78;;;1.18;81.23
11605;BME280;5858;43.076;25.626;2023-01-25T13:11:22;100432.34;;;0.76;81.73
11605;BME280;5858;43.076;25.626;2023-01-25T13:17:30;100609.91;;;1.75;82.72
11605;BME280;5858;43.076;25.626;2023-01-25T13:23:29;100537.66;;;1.35;83.05
11605;BME280;5858;43.076;25.626;2023-01-25T13:29:00;100471.78;;;1.06;82.88
11605;BME280;5858;43.076;25.626;2023-01-25T13:31:43;100599.19;;;1.64;84.66
11605;BME280;5858;43.076;25.626;2023-01-25T13:37:24;100514.88;;;1.19;84.75
11605;BME280;5858;43.076;25.626;2023-01-25T13:39:57;100494.66;;;1.06;84.97
11605;BME280;5858;43.076;25.626;2023-01-25T13:42:27;100486.38;;;0.98;84.67
11605;BME280;5858;43.076;25.626;2023-01-25T13:44:57;100420.06;;;0.47;85.00
11605;BME280;5858;43.076;25.626;2023-01-25T13:47:33;100600.38;;;1.72;85.22
11605;BME280;5858;43.076;25.626;2023-01-25T13:50:11;100521.19;;;1.31;85.07
11605;BME280;5858;43.076;25.626;2023-01-25T13:52:55;100533.91;;;1.39;85.32
11605;BME280;5858;43.076;25.626;2023-01-25T13:55:23;100425.38;;;0.61;84.88
11605;BME280;5858;43.076;25.626;2023-01-25T13:58:13;100461.91;;;0.96;85.12
11605;BME280;5858;43.076;25.626;2023-01-25T14:00:52;100548.13;;;1.22;85.96
11605;BME280;5858;43.076;25.626;2023-01-25T14:03:23;100525.44;;;1.19;85.93
11605;BME280;5858;43.076;25.626;2023-01-25T14:05:57;100476.75;;;0.82;86.44
11605;BME280;5858;43.076;25.626;2023-01-25T14:08:27;100578.16;;;1.62;86.26
11605;BME280;5858;43.076;25.626;2023-01-25T14:10:57;100587.50;;;1.53;86.79